createdAt,value
2018-04-19T00:06:53.774Z,10.37
2018-04-19T00:09:22.481Z,10.00
2018-04-19T00:11:51.136Z,10.90
2018-04-19T00:14:19.330Z,9.17
2018-04-19T00:16:47.583Z,14.47
2018-04-19T00:19:16.231Z,12.03
2018-04-19T00:21:44.488Z,14.20
2018-04-19T00:24:12.717Z,10.47
2018-04-19T00:26:41.334Z,10.47
2018-04-19T00:29:09.549Z,9.27
2018-04-19T00:31:37.778Z,10.07
2018-04-19T00:34:06.372Z,8.20
2018-04-19T00:36:34.568Z,12.77
2018-04-19T00:39:02.880Z,11.90
2018-04-19T00:41:31.467Z,8.67
2018-04-19T00:43:59.691Z,9.20
2018-04-19T00:46:28.164Z,6.63
2018-04-19T00:48:56.615Z,8.80
2018-04-19T00:51:24.845Z,6.57
2018-04-19T00:53:53.235Z,7.23
2018-04-19T00:56:21.754Z,7.13
2018-04-19T00:58:49.971Z,9.63
2018-04-19T01:01:18.389Z,8.20
2018-04-19T01:03:47.019Z,6.33
2018-04-19T01:06:15.301Z,11.17
2018-04-19T01:08:43.531Z,10.53
2018-04-19T01:11:11.966Z,10.33
2018-04-19T01:13:40.224Z,8.53
2018-04-19T01:16:08.518Z,5.27
2018-04-19T01:18:37.180Z,6.97
2018-04-19T01:21:05.410Z,8.00
2018-04-19T01:23:33.669Z,6.77
2018-04-19T01:26:02.287Z,9.10
2018-04-19T01:28:30.570Z,7.73
2018-04-19T01:30:58.842Z,8.67
2018-04-19T01:33:27.576Z,9.17
2018-04-19T01:36:07.580Z,5.33
2018-04-19T01:38:35.794Z,8.53
2018-04-19T01:41:04.094Z,8.13
2018-04-19T01:43:32.878Z,7.53
2018-04-19T01:46:01.082Z,7.43
2018-04-19T01:48:29.301Z,8.83
2018-04-19T01:50:57.841Z,7.73
2018-04-19T01:53:26.107Z,8.97
2018-04-19T01:55:54.512Z,8.63
2018-04-19T01:58:23.331Z,11.13
2018-04-19T02:00:51.543Z,11.20
2018-04-19T02:03:19.750Z,9.27
2018-04-19T02:05:48.315Z,8.77
2018-04-19T02:08:16.589Z,10.83
2018-04-19T02:10:44.794Z,8.17
2018-04-19T02:13:13.453Z,7.57
2018-04-19T02:15:41.689Z,7.20
2018-04-19T02:18:09.941Z,8.30
2018-04-19T02:20:38.596Z,8.50
2018-04-19T02:23:06.827Z,8.10
2018-04-19T02:25:35.028Z,4.90
2018-04-19T02:28:03.773Z,11.70
2018-04-19T02:30:32.027Z,8.03
2018-04-19T02:33:00.220Z,9.43
2018-04-19T02:35:28.963Z,6.00
2018-04-19T02:37:57.226Z,8.90
2018-04-19T02:40:25.454Z,6.80
2018-04-19T02:42:54.061Z,5.60
2018-04-19T02:45:22.307Z,5.60
2018-04-19T02:47:50.518Z,5.10
2018-04-19T02:50:19.153Z,4.27
2018-04-19T02:52:47.364Z,8.27
2018-04-19T02:55:15.559Z,7.97
2018-04-19T02:57:44.010Z,6.90
2018-04-19T03:00:12.215Z,4.60
2018-04-19T03:02:40.606Z,7.77
2018-04-19T03:05:09.205Z,6.77
2018-04-19T03:07:37.431Z,8.03
2018-04-19T03:10:05.730Z,7.47
2018-04-19T03:12:34.409Z,6.33
2018-04-19T03:15:02.633Z,5.97
2018-04-19T03:17:30.940Z,5.57
2018-04-19T03:19:59.480Z,7.37
2018-04-19T03:22:27.717Z,6.43
2018-04-19T03:24:56.028Z,5.40
2018-04-19T03:27:24.727Z,6.97
2018-04-19T03:29:52.931Z,5.30
2018-04-19T03:32:21.143Z,6.23
2018-04-19T03:34:49.767Z,6.23
2018-04-19T03:37:18.157Z,8.33
2018-04-19T03:39:46.337Z,6.07
2018-04-19T03:42:14.903Z,5.83
2018-04-19T03:44:43.118Z,6.87
2018-04-19T03:47:11.487Z,7.17
2018-04-19T03:49:40.034Z,9.27
2018-04-19T03:52:08.319Z,6.17
2018-04-19T03:54:36.661Z,6.73
2018-04-19T03:57:07.965Z,7.37
2018-04-19T03:59:36.760Z,6.50
2018-04-19T04:02:05.342Z,7.63
2018-04-19T04:04:33.601Z,8.43
2018-04-19T04:07:01.906Z,7.67
2018-04-19T04:09:30.444Z,5.47
2018-04-19T04:11:58.691Z,5.93
2018-04-19T04:14:27.070Z,8.00
2018-04-19T04:17:07.230Z,8.23
2018-04-19T04:19:47.305Z,8.67
2018-04-19T04:22:27.438Z,8.80
2018-04-19T04:24:56.154Z,8.03
2018-04-19T04:27:25.057Z,9.70
2018-04-19T04:29:53.377Z,9.07
2018-04-19T04:32:23.481Z,7.97
2018-04-19T04:34:52.231Z,7.97
2018-04-19T04:37:20.808Z,11.57
2018-04-19T04:39:49.299Z,8.27
2018-04-19T04:42:17.905Z,8.57
2018-04-19T04:44:46.411Z,8.53
2018-04-19T04:47:14.642Z,7.93
2018-04-19T04:49:43.156Z,10.63
2018-04-19T04:52:11.948Z,10.27
2018-04-19T04:54:40.180Z,9.07
2018-04-19T04:57:08.391Z,14.40
2018-04-19T04:59:37.126Z,11.43
2018-04-19T05:02:05.438Z,11.00
2018-04-19T05:04:33.641Z,10.10
2018-04-19T05:07:02.429Z,9.17
2018-04-19T05:09:30.647Z,11.07
2018-04-19T05:11:58.876Z,8.63
2018-04-19T05:14:27.714Z,7.37
2018-04-19T05:16:55.911Z,8.70
2018-04-19T05:19:24.136Z,8.57
2018-04-19T05:21:52.732Z,11.20
2018-04-19T05:24:20.997Z,13.60
2018-04-19T05:26:49.218Z,11.73
2018-04-19T05:29:17.834Z,8.33
2018-04-19T05:31:46.976Z,10.07
2018-04-19T05:34:15.187Z,8.70
2018-04-19T05:36:43.453Z,13.30
2018-04-19T05:39:12.128Z,8.73
2018-04-19T05:41:40.362Z,10.37
2018-04-19T05:44:08.579Z,17.40
2018-04-19T05:46:37.303Z,10.20
2018-04-19T05:49:05.534Z,8.97
2018-04-19T05:51:33.748Z,9.70
2018-04-19T05:54:02.315Z,11.07
2018-04-19T05:56:30.502Z,6.63
2018-04-19T05:58:58.729Z,9.83
2018-04-19T06:01:26.956Z,12.30
2018-04-19T06:03:55.148Z,48.37
2018-04-19T06:06:23.606Z,37.60
2018-04-19T06:08:51.838Z,21.33
2018-04-19T06:11:20.045Z,8.23
2018-04-19T06:13:48.870Z,10.50
2018-04-19T06:16:17.098Z,11.90
2018-04-19T06:18:45.315Z,9.33
2018-04-19T06:21:14.255Z,10.63
2018-04-19T06:23:42.968Z,9.53
2018-04-19T06:26:11.182Z,8.57
2018-04-19T06:28:39.422Z,9.57
2018-04-19T06:31:08.166Z,15.27
2018-04-19T06:33:36.352Z,8.47
2018-04-19T06:36:04.550Z,9.00
2018-04-19T06:38:33.175Z,11.90
2018-04-19T06:41:01.379Z,10.30
2018-04-19T06:43:29.628Z,11.60
2018-04-19T06:45:58.202Z,7.43
2018-04-19T06:48:26.407Z,9.43
2018-04-19T06:50:54.627Z,9.43
2018-04-19T06:53:23.340Z,6.43
2018-04-19T06:55:51.568Z,8.47
2018-04-19T06:58:19.799Z,11.90
2018-04-19T07:00:48.474Z,8.03
2018-04-19T07:03:16.671Z,10.10
2018-04-19T07:05:44.897Z,10.13
2018-04-19T07:08:13.651Z,7.00
2018-04-19T07:10:41.897Z,10.13
2018-04-19T07:13:10.085Z,11.73
2018-04-19T07:15:38.731Z,9.53
2018-04-19T07:18:06.926Z,8.60
2018-04-19T07:20:35.116Z,9.80
2018-04-19T07:23:03.318Z,10.83
2018-04-19T07:25:31.534Z,5.50
2018-04-19T07:28:00.119Z,11.37
2018-04-19T07:30:28.312Z,11.17
2018-04-19T07:32:56.503Z,11.17
2018-04-19T07:35:24.826Z,5.53
2018-04-19T07:37:53.047Z,7.73
2018-04-19T07:40:21.494Z,7.70
2018-04-19T07:42:50.072Z,10.03
2018-04-19T07:45:18.305Z,9.20
2018-04-19T07:47:46.612Z,5.87
2018-04-19T07:50:15.189Z,6.23
2018-04-19T07:52:43.380Z,5.73
2018-04-19T07:55:11.765Z,8.40
2018-04-19T07:57:40.014Z,8.77
2018-04-19T08:00:08.233Z,6.17
2018-04-19T08:02:36.446Z,9.00
2018-04-19T08:05:05.126Z,6.37
2018-04-19T08:07:33.346Z,7.77
2018-04-19T08:10:01.531Z,6.30
2018-04-19T08:12:30.249Z,6.07
2018-04-19T08:14:58.457Z,7.60
2018-04-19T08:17:26.679Z,6.53
2018-04-19T08:19:55.384Z,6.33
2018-04-19T08:22:23.601Z,6.17
2018-04-19T08:24:51.812Z,7.90
2018-04-19T08:27:20.412Z,6.57
2018-04-19T08:29:48.616Z,5.17
2018-04-19T08:32:16.826Z,13.67
2018-04-19T08:34:45.525Z,7.17
2018-04-19T08:37:13.737Z,3.83
2018-04-19T08:39:41.953Z,7.57
2018-04-19T08:42:10.194Z,4.80
2018-04-19T08:44:38.387Z,6.30
2018-04-19T08:47:06.809Z,5.33
2018-04-19T08:49:35.030Z,7.93
2018-04-19T08:52:03.236Z,6.03
2018-04-19T08:54:31.475Z,6.43
2018-04-19T08:56:59.741Z,9.43
2018-04-19T08:59:28.043Z,7.77
2018-04-19T09:01:56.676Z,5.80
2018-04-19T09:04:24.856Z,6.50
2018-04-19T09:06:53.176Z,8.20
2018-04-19T09:09:21.758Z,7.33
2018-04-19T09:11:49.981Z,5.03
2018-04-19T09:14:18.277Z,6.97
2018-04-19T09:16:46.925Z,6.47
2018-04-19T09:19:15.166Z,12.90
2018-04-19T09:21:43.433Z,5.97
2018-04-19T09:24:12.060Z,6.90
2018-04-19T09:26:40.266Z,5.77
2018-04-19T09:29:08.599Z,6.53
2018-04-19T09:31:37.108Z,7.40
2018-04-19T09:34:05.393Z,7.73
2018-04-19T09:36:33.698Z,5.87
2018-04-19T09:39:02.212Z,8.53
2018-04-19T09:41:30.426Z,5.93
2018-04-19T09:43:58.742Z,5.33
2018-04-19T09:46:27.287Z,6.60
2018-04-19T09:48:55.509Z,7.60
2018-04-19T09:51:23.760Z,8.80
2018-04-19T09:53:52.445Z,5.27
2018-04-19T09:56:20.630Z,6.40
2018-04-19T09:59:00.885Z,8.10
2018-04-19T10:01:29.409Z,4.20
2018-04-19T10:03:58.252Z,4.30
2018-04-19T10:06:26.585Z,4.23
2018-04-19T10:08:54.891Z,8.10
2018-04-19T10:11:23.599Z,4.67
2018-04-19T10:13:51.906Z,7.63
2018-04-19T10:16:20.172Z,4.83
2018-04-19T10:18:48.728Z,5.10
2018-04-19T10:21:16.992Z,6.30
2018-04-19T10:23:45.239Z,7.50
2018-04-19T10:26:13.927Z,7.53
2018-04-19T10:28:42.130Z,6.50
2018-04-19T10:31:10.955Z,5.60
2018-04-19T10:33:39.285Z,8.30
2018-04-19T10:36:07.949Z,3.83
2018-04-19T10:38:36.122Z,5.40
2018-04-19T10:41:04.365Z,5.43
2018-04-19T10:43:32.614Z,7.13
2018-04-19T10:46:00.818Z,5.50
2018-04-19T10:48:29.299Z,5.83
2018-04-19T10:50:57.515Z,5.70
2018-04-19T10:53:25.697Z,6.20
2018-04-19T10:55:54.045Z,5.13
2018-04-19T10:58:22.251Z,4.70
2018-04-19T11:00:50.565Z,5.47
2018-04-19T11:03:19.148Z,4.80
2018-04-19T11:05:47.346Z,4.27
2018-04-19T11:08:16.701Z,7.23
2018-04-19T11:10:45.004Z,6.67
2018-04-19T11:13:13.768Z,4.53
2018-04-19T11:15:42.073Z,5.43
2018-04-19T11:18:10.312Z,6.47
2018-04-19T11:20:38.877Z,5.93
2018-04-19T11:23:07.072Z,3.43
2018-04-19T11:25:35.293Z,8.32
2018-04-19T11:28:03.975Z,4.20
2018-04-19T11:30:32.241Z,5.83
2018-04-19T11:33:00.453Z,6.60
2018-04-19T11:35:29.123Z,5.45
2018-04-19T11:37:57.326Z,5.35
2018-04-19T11:40:25.663Z,6.07
2018-04-19T11:42:54.433Z,6.63
2018-04-19T11:45:22.642Z,7.47
2018-04-19T11:47:50.860Z,6.22
2018-04-19T11:50:19.423Z,5.23
2018-04-19T11:52:47.624Z,5.93
2018-04-19T11:55:15.861Z,3.83
2018-04-19T11:57:44.587Z,3.15
2018-04-19T12:00:12.815Z,4.62
2018-04-19T12:02:41.013Z,4.80
2018-04-19T12:05:09.655Z,5.85
2018-04-19T12:07:37.881Z,4.32
2018-04-19T12:10:06.120Z,4.57
2018-04-19T12:12:34.907Z,7.82
2018-04-19T12:15:03.116Z,3.95
2018-04-19T12:17:31.346Z,4.18
2018-04-19T12:19:59.945Z,5.28
2018-04-19T12:22:28.148Z,4.28
2018-04-19T12:24:56.350Z,5.20
2018-04-19T12:27:25.063Z,4.28
2018-04-19T12:29:53.284Z,6.75
2018-04-19T12:32:21.510Z,6.78
2018-04-19T12:34:50.148Z,6.70
2018-04-19T12:37:18.370Z,4.47
2018-04-19T12:39:46.613Z,4.28
2018-04-19T12:42:15.383Z,7.20
2018-04-19T12:44:43.596Z,6.10
2018-04-19T12:47:11.802Z,5.30
2018-04-19T12:49:40.417Z,3.25
2018-04-19T12:52:08.643Z,3.60
2018-04-19T12:54:36.859Z,6.78
2018-04-19T12:57:05.528Z,6.00
2018-04-19T12:59:33.742Z,7.43
2018-04-19T13:02:01.993Z,7.28
2018-04-19T13:04:30.642Z,4.45
2018-04-19T13:06:58.846Z,3.58
2018-04-19T13:09:27.308Z,4.55
2018-04-19T13:11:55.785Z,5.68
2018-04-19T13:14:24.007Z,5.07
2018-04-19T13:16:52.214Z,5.85
2018-04-19T13:19:20.988Z,4.53
2018-04-19T13:21:49.205Z,4.12
2018-04-19T13:24:17.451Z,5.50
2018-04-19T13:26:45.995Z,6.22
2018-04-19T13:29:14.223Z,3.12
2018-04-19T13:31:42.427Z,3.47
2018-04-19T13:34:11.181Z,6.28
2018-04-19T13:36:39.361Z,7.75
2018-04-19T13:39:07.571Z,3.25
2018-04-19T13:41:36.689Z,3.15
2018-04-19T13:44:04.909Z,3.15
2018-04-19T13:46:33.329Z,4.28
2018-04-19T13:51:44.347Z,3.80
2018-04-19T13:54:12.930Z,8.90
2018-04-19T13:56:41.151Z,4.30
2018-04-19T13:59:09.413Z,4.43
2018-04-19T14:01:38.065Z,6.50
2018-04-19T14:04:06.312Z,3.30
2018-04-19T14:06:34.525Z,6.40
2018-04-19T14:09:03.628Z,5.15
2018-04-19T14:11:32.133Z,3.70
2018-04-19T14:14:00.351Z,4.43
2018-04-19T14:16:28.579Z,3.78
2018-04-19T14:18:57.258Z,3.83
2018-04-19T14:21:25.448Z,3.25
2018-04-19T14:23:53.640Z,4.35
2018-04-19T14:26:22.290Z,3.90
2018-04-19T14:28:50.469Z,5.03
2018-04-19T14:31:18.945Z,5.32
2018-04-19T14:33:47.532Z,5.18
2018-04-19T14:36:15.751Z,6.53
2018-04-19T14:38:43.994Z,2.80
2018-04-19T14:41:12.680Z,4.93
2018-04-19T14:43:40.942Z,2.90
2018-04-19T14:46:09.128Z,7.35
2018-04-19T14:48:37.745Z,5.32
2018-04-19T14:51:05.978Z,4.95
2018-04-19T14:53:34.896Z,3.75
2018-04-19T14:56:03.486Z,8.55
2018-04-19T14:58:31.693Z,6.57
2018-04-19T15:01:00.087Z,5.00
2018-04-19T15:03:28.735Z,6.53
2018-04-19T15:05:57.159Z,4.93
2018-04-19T15:08:25.398Z,8.23
2018-04-19T15:10:53.812Z,3.12
2018-04-19T15:13:22.043Z,7.87
2018-04-19T15:15:50.228Z,3.17
2018-04-19T15:18:18.860Z,4.03
2018-04-19T15:20:47.095Z,3.35
2018-04-19T15:23:15.451Z,3.97
2018-04-19T15:25:44.011Z,5.10
2018-04-19T15:28:12.212Z,6.18
2018-04-19T15:30:40.863Z,7.87
2018-04-19T15:33:09.053Z,9.68
2018-04-19T15:35:37.275Z,5.95
2018-04-19T15:38:05.488Z,3.70
2018-04-19T15:40:34.360Z,7.85
2018-04-19T15:43:02.573Z,9.93
2018-04-19T15:45:31.586Z,15.52
2018-04-19T15:48:00.528Z,9.68
2018-04-19T15:50:28.804Z,7.18
2018-04-19T15:52:57.017Z,8.50
2018-04-19T15:55:25.877Z,6.83
2018-04-19T15:57:54.127Z,6.07
2018-04-19T16:00:22.387Z,5.03
2018-04-19T16:02:51.174Z,3.90
2018-04-19T16:05:19.869Z,4.90
2018-04-19T16:07:48.044Z,5.68
2018-04-19T16:10:16.329Z,4.47
2018-04-19T16:12:45.017Z,7.87
2018-04-19T16:15:13.227Z,3.92
2018-04-19T16:17:41.465Z,5.70
2018-04-19T16:20:10.066Z,5.82
2018-04-19T16:22:38.253Z,6.40
2018-04-19T16:25:06.453Z,9.23
2018-04-19T16:27:35.213Z,6.18
2018-04-19T16:30:03.434Z,8.77
2018-04-19T16:32:31.690Z,7.05
2018-04-19T16:35:00.423Z,9.25
2018-04-19T16:37:28.663Z,6.20
2018-04-19T16:39:57.490Z,7.72
2018-04-19T16:42:26.152Z,6.28
2018-04-19T16:44:54.407Z,7.53
2018-04-19T16:47:22.602Z,4.70
2018-04-19T16:49:51.174Z,5.95
2018-04-19T16:52:19.409Z,4.82
2018-04-19T16:54:47.807Z,7.75
2018-04-19T16:57:16.677Z,7.30
2018-04-19T16:59:44.952Z,4.78
2018-04-19T17:02:13.187Z,8.60
2018-04-19T17:04:41.882Z,6.12
2018-04-19T17:07:10.087Z,7.20
2018-04-19T17:09:38.317Z,7.10
2018-04-19T17:12:06.880Z,9.07
2018-04-19T17:14:35.171Z,7.90
2018-04-19T17:17:03.383Z,6.03
2018-04-19T17:19:32.072Z,9.07
2018-04-19T17:22:00.319Z,6.37
2018-04-19T17:24:28.493Z,5.32
2018-04-19T17:26:57.126Z,6.20
2018-04-19T17:29:25.354Z,9.15
2018-04-19T17:31:53.749Z,5.47
2018-04-19T17:34:22.237Z,9.60
2018-04-19T17:36:50.453Z,6.27
2018-04-19T17:39:18.887Z,6.73
2018-04-19T17:41:47.714Z,5.00
2018-04-19T17:44:15.960Z,8.33
2018-04-19T17:46:44.147Z,6.23
2018-04-19T17:49:12.742Z,11.10
2018-04-19T17:51:41.025Z,5.63
2018-04-19T17:54:09.243Z,8.03
2018-04-19T17:56:37.806Z,10.07
2018-04-19T17:59:06.044Z,7.07
2018-04-19T18:01:34.277Z,8.30
2018-04-19T18:04:03.218Z,6.30
2018-04-19T18:06:32.057Z,7.60
2018-04-19T18:09:00.249Z,6.90
2018-04-19T18:11:28.508Z,6.47
2018-04-19T18:13:57.191Z,8.40
2018-04-19T18:16:25.395Z,4.40
2018-04-19T18:18:53.600Z,6.53
2018-04-19T18:21:22.317Z,7.53
2018-04-19T18:23:50.565Z,9.97
2018-04-19T18:26:18.777Z,7.77
2018-04-19T18:28:47.432Z,6.07
2018-04-19T18:31:15.639Z,7.80
2018-04-19T18:33:43.849Z,10.13
2018-04-19T18:36:12.491Z,7.03
2018-04-19T18:38:41.453Z,9.90
2018-04-19T18:41:09.659Z,7.82
2018-04-19T18:43:37.911Z,7.35
2018-04-19T18:46:07.112Z,9.47
2018-04-19T18:48:35.459Z,9.27
2018-04-19T18:51:04.081Z,6.97
2018-04-19T18:53:32.297Z,9.30
2018-04-19T18:56:00.508Z,8.27
2018-04-19T18:58:29.070Z,7.07
2018-04-19T19:00:57.285Z,5.37
2018-04-19T19:03:25.485Z,7.77
2018-04-19T19:05:54.223Z,7.57
2018-04-19T19:08:22.483Z,7.07
2018-04-19T19:10:50.671Z,6.63
2018-04-19T19:13:19.419Z,6.63
2018-04-19T19:19:12.584Z,6.70
2018-04-19T19:21:40.777Z,8.53
2018-04-19T19:24:09.629Z,11.70
2018-04-19T19:26:37.842Z,7.63
2018-04-19T19:29:06.023Z,9.00
2018-04-19T19:31:34.744Z,7.73
2018-04-19T19:34:02.975Z,12.60
2018-04-19T19:36:31.247Z,10.80
2018-04-19T19:38:59.926Z,16.67
2018-04-19T19:41:28.195Z,13.47
2018-04-19T19:43:56.425Z,16.90
2018-04-19T19:46:24.981Z,15.03
2018-04-19T19:48:53.224Z,14.13
2018-04-19T19:51:21.469Z,16.07
2018-04-19T19:53:50.089Z,14.93
2018-04-19T19:56:18.332Z,13.47
2018-04-19T19:58:46.606Z,16.20
2018-04-19T20:01:15.174Z,11.57
2018-04-19T20:03:43.422Z,10.33
2018-04-19T20:06:11.658Z,12.83
2018-04-19T20:08:40.219Z,15.07
2018-04-19T20:11:08.573Z,17.93
2018-04-19T20:13:36.770Z,12.70
2018-04-19T20:16:05.347Z,14.33
2018-04-19T20:18:33.601Z,12.63
2018-04-19T20:21:01.829Z,13.07
2018-04-19T20:23:30.526Z,12.90
2018-04-19T20:25:58.752Z,15.77
2018-04-19T20:28:26.937Z,13.30
2018-04-19T20:30:55.575Z,9.80
2018-04-19T20:33:23.842Z,10.57
2018-04-19T20:35:52.904Z,12.57
2018-04-19T20:38:21.147Z,11.97
2018-04-19T20:40:49.703Z,13.27
2018-04-19T20:43:17.906Z,13.17
2018-04-19T20:45:46.165Z,11.40
2018-04-19T20:48:14.973Z,14.40
2018-04-19T20:50:43.230Z,10.90
2018-04-19T20:53:12.019Z,8.70
2018-04-19T20:55:40.501Z,11.40
2018-04-19T20:58:08.758Z,16.40
2018-04-19T21:00:37.081Z,12.73
2018-04-19T21:03:05.782Z,12.53
2018-04-19T21:05:33.996Z,9.90
2018-04-19T21:08:02.199Z,11.23
2018-04-19T21:10:30.715Z,8.07
2018-04-19T21:13:00.127Z,11.03
2018-04-19T21:15:31.533Z,19.03
2018-04-19T21:18:00.293Z,11.07
2018-04-19T21:20:28.490Z,10.47
2018-04-19T21:22:56.729Z,11.37
2018-04-19T21:25:25.326Z,11.63
2018-04-19T21:27:53.513Z,8.33
2018-04-19T21:30:21.775Z,11.47
2018-04-19T21:32:50.544Z,7.80
2018-04-19T21:35:18.863Z,10.17
2018-04-19T21:37:47.698Z,6.27
2018-04-19T21:40:16.143Z,9.03
2018-04-19T21:42:44.347Z,11.33
2018-04-19T21:45:12.714Z,10.23
2018-04-19T21:47:41.307Z,8.70
2018-04-19T21:50:09.546Z,11.37
2018-04-19T21:52:38.046Z,9.50
2018-04-19T21:55:06.899Z,7.20
2018-04-19T21:57:35.115Z,10.80
2018-04-19T22:00:03.335Z,8.80
2018-04-19T22:02:31.969Z,8.70
2018-04-19T22:05:00.186Z,9.37
2018-04-19T22:07:28.391Z,9.97
2018-04-19T22:09:57.098Z,7.03
2018-04-19T22:12:25.303Z,11.43
2018-04-19T22:14:53.522Z,9.37
2018-04-19T22:17:22.299Z,12.27
2018-04-19T22:19:51.232Z,6.67
2018-04-19T22:22:19.438Z,6.00
2018-04-19T22:24:49.023Z,9.53
2018-04-19T22:27:17.717Z,14.27
2018-04-19T22:29:46.997Z,8.57
2018-04-19T22:32:15.236Z,10.13
2018-04-19T22:34:43.597Z,6.50
2018-04-19T22:37:12.120Z,8.03
2018-04-19T22:39:40.391Z,7.83
2018-04-19T22:42:08.709Z,12.37
2018-04-19T22:44:37.296Z,9.23
2018-04-19T22:47:05.603Z,7.53
2018-04-19T22:49:33.778Z,5.63
2018-04-19T22:52:02.334Z,8.57
2018-04-19T22:54:30.564Z,6.77
2018-04-19T22:56:58.957Z,6.93
2018-04-19T22:59:27.506Z,5.70
2018-04-19T23:01:55.721Z,7.83
2018-04-19T23:04:24.130Z,9.07
2018-04-19T23:06:52.667Z,5.57
2018-04-19T23:09:20.922Z,12.47
2018-04-19T23:11:50.121Z,7.10
2018-04-19T23:14:18.360Z,6.60
2018-04-19T23:16:47.109Z,11.23
2018-04-19T23:19:15.351Z,8.17
2018-04-19T23:21:43.606Z,10.00
2018-04-19T23:24:12.261Z,10.13
2018-04-19T23:26:40.489Z,7.07
2018-04-19T23:29:09.310Z,5.77
2018-04-19T23:31:38.026Z,7.70
2018-04-19T23:34:06.221Z,7.90
2018-04-19T23:36:34.685Z,6.13
2018-04-19T23:39:03.296Z,10.47
2018-04-19T23:41:31.517Z,9.20
2018-04-19T23:43:59.713Z,7.07
2018-04-19T23:46:28.295Z,8.00
2018-04-19T23:48:56.514Z,8.07
2018-04-19T23:51:24.819Z,7.10
2018-04-19T23:53:53.419Z,8.30
2018-04-19T23:56:21.638Z,9.40
2018-04-19T23:58:50.110Z,8.97
